Latest Weather Observations for Truscott

IDW60801

Issued at 9:32 pm WST Tuesday 1 September 2015 (issued every 30 minutes, with the page automatically refreshed every 10 minutes)

About weather observations | Map of weather stations | Latest weather observations for WA | Other Formats
Station Details ID: 001020 Name: TRUSCOTT Lat: -14.09 Lon: 126.39 Height: 51.0 m
Data from the previous 72 hours. | See also: Recent months at Truscott
Date/Time
WST
Temp
°C
App
Temp
°C
Dew
Point
Rel
Hum
%
Delta-T
°C
Wind Press
QNH
hPa
Press
MSL
hPa
Rain
since 9 am
mm
Dir
 
Spd
km/h
Gust
km/h
Spd
kts
Gust
kts
01/09:30pm 25.0 26.2 20.0 74 3.2 W 13 15 7 8 1014.0 - 0.0
01/09:00pm 24.8 26.3 19.8 74 3.2 W 11 15 6 8 1014.0 1014.2 0.0
01/08:30pm 25.0 25.9 20.0 74 3.2 W 15 - 8 - 1014.0 - 0.0
01/08:00pm 25.0 25.9 20.0 74 3.2 W 15 - 8 - 1014.0 - 0.0
01/07:30pm 25.0 25.9 20.0 74 3.2 W 15 - 8 - 1014.0 - 0.0
01/07:00pm 25.0 26.2 20.0 74 3.2 W 13 - 7 - 1013.0 - 0.0
01/06:30pm 26.0 26.8 19.0 65 4.5 W 13 - 7 - 1013.0 - 0.0
01/06:00pm 26.1 26.1 18.0 61 5.1 W 15 - 8 - 1012.0 1012.3 0.0
01/05:30pm 27.0 27.0 18.0 58 5.7 W 15 - 8 - 1012.0 - 0.0
01/05:00pm 28.0 26.8 16.0 48 7.4 W 17 - 9 - 1012.0 - 0.0
01/04:30pm 29.0 26.7 14.0 39 9.0 W 19 - 10 - 1012.0 - 0.0
01/04:00pm 30.0 28.0 15.0 40 9.2 W 19 - 10 - 1011.0 - 0.0
01/03:30pm 30.0 27.8 15.0 40 9.2 W 20 - 11 - 1011.0 - 0.0
01/03:00pm 30.4 28.2 14.9 39 9.5 W 20 - 11 - 1011.0 1011.3 0.0
01/02:30pm 30.0 28.0 15.0 40 9.2 W 19 - 10 - 1012.0 - 0.0
01/02:00pm 30.0 28.2 16.0 42 8.7 W 20 - 11 - 1012.0 - 0.0
01/01:30pm 31.0 28.8 15.0 38 9.8 WNW 20 - 11 - 1012.0 - 0.0
01/01:00pm 30.0 27.4 15.0 40 9.2 W 22 - 12 - 1012.0 - 0.0
01/12:36pm 30.0 27.8 16.0 42 8.7 W 22 - 12 - 1013.0 - 0.0
01/12:30pm 30.0 27.5 14.0 37 9.7 W 20 - 11 - 1013.0 - 0.0
01/12:23pm 30.0 27.8 15.0 40 9.2 W 20 - 11 - 1013.0 - 0.0
01/12:00pm 29.7 27.0 14.7 40 9.1 W 22 - 12 - 1013.0 1013.1 0.0
01/11:30am 29.0 25.7 14.0 39 9.0 WNW 24 - 13 - 1014.0 - 0.0
01/11:00am 29.0 26.4 15.0 42 8.5 W 22 - 12 - 1014.0 - 0.0
01/10:30am 29.0 27.4 16.0 45 8.1 WNW 19 - 10 - 1014.0 - 0.0
01/10:00am 29.0 27.8 17.0 48 7.5 WNW 19 - 10 - 1015.0 - 0.0
01/09:30am 28.0 27.2 17.0 51 6.9 W 17 - 9 - 1015.0 - 0.0
01/09:00am 28.2 27.4 17.1 51 7.0 W 17 - 9 - 1015.0 1014.9 0.0
01/08:30am 28.0 27.2 17.0 51 6.9 W 17 - 9 - 1015.0 - 0.0
01/08:00am 27.0 26.9 17.0 54 6.2 WSW 13 - 7 - 1015.0 - 0.0
01/07:30am 26.0 26.0 18.0 61 5.1 W 15 - 8 - 1015.0 - 0.0
01/07:00am 26.0 27.5 19.0 65 4.5 WSW 9 - 5 - 1015.0 - 0.0
01/06:30am 24.0 25.5 19.0 73 3.2 WSW 9 - 5 - 1014.0 - 0.0
01/06:00am 23.1 25.1 19.1 78 2.5 SW 7 - 4 - 1014.0 1013.8 0.0
01/05:30am 23.0 24.9 19.0 78 2.5 SW 7 - 4 - 1013.0 - 0.0
01/05:00am 23.0 24.5 19.0 78 2.5 WSW 9 - 5 - 1013.0 - 0.0
01/04:30am 23.0 24.9 19.0 78 2.5 WSW 7 - 4 - 1013.0 - 0.0
01/04:00am 23.0 24.9 19.0 78 2.5 WSW 7 - 4 - 1012.0 - 0.0
01/03:30am 24.0 25.9 19.0 73 3.2 SW 7 - 4 - 1012.0 - 0.0
01/03:00am 23.8 25.4 19.1 75 3.0 SW 9 - 5 - 1012.0 1012.3 0.0
01/02:30am 24.0 25.9 19.0 73 3.2 SW 7 - 4 - 1012.0 - 0.0
01/02:00am 24.0 26.4 20.0 78 2.6 WSW 7 - 4 - 1013.0 - 0.0
01/01:30am 24.0 26.0 20.0 78 2.6 WSW 9 - 5 - 1013.0 - 0.0
01/01:00am 25.0 27.0 20.0 74 3.2 W 9 - 5 - 1013.0 - 0.0
01/12:30am 25.0 26.6 20.0 74 3.2 WSW 11 - 6 - 1013.0 - 0.0
01/12:00am 25.0 26.4 19.6 72 3.5 W 11 - 6 - 1013.0 1013.4 0.0
 
Date/Time
WST
Temp
°C
App
Temp
°C
Dew
Point
Rel
Hum
%
Delta-T
°C
Wind Press
QNH
hPa
Press
MSL
hPa
Rain
since 9 am
mm
Dir
 
Spd
km/h
Gust
km/h
Spd
kts
Gust
kts
31/11:30pm 25.0 27.0 20.0 74 3.2 WSW 9 - 5 - 1014.0 - 0.0
31/11:00pm 25.0 26.2 20.0 74 3.2 WSW 13 - 7 - 1014.0 - 0.0
31/10:30pm 25.0 26.6 20.0 74 3.2 WSW 11 - 6 - 1014.0 - 0.0
31/10:00pm 26.0 27.7 21.0 74 3.3 W 13 - 7 - 1014.0 - 0.0
31/09:30pm 26.0 27.7 21.0 74 3.3 W 13 - 7 - 1014.0 - 0.0
31/09:00pm 26.0 27.2 20.6 72 3.5 W 15 - 8 - 1014.0 1013.8 0.0
31/08:30pm 26.0 27.4 21.0 74 3.3 W 15 - 8 - 1014.0 - 0.0
31/08:10pm 26.0 28.1 21.0 74 3.3 W 11 - 6 - 1014.0 - 0.0
31/08:00pm 26.0 27.4 21.0 74 3.3 W 15 - 8 - 1014.0 - 0.0
31/07:54pm 26.0 27.7 21.0 74 3.3 W 13 - 7 - 1014.0 - 0.0
31/07:30pm 26.0 27.4 21.0 74 3.3 W 15 - 8 - 1013.0 - 0.0
31/07:00pm 26.0 27.7 21.0 74 3.3 W 13 - 7 - 1013.0 - 0.0
31/06:30pm 26.0 27.4 21.0 74 3.3 W 15 - 8 - 1013.0 - 0.0
31/06:00pm 26.5 27.3 20.6 70 3.9 W 17 - 9 - 1013.0 1012.7 0.0
31/05:30pm 27.0 26.9 20.0 65 4.6 W 20 - 11 - 1013.0 - 0.0
31/05:00pm 28.0 27.5 19.0 58 5.8 W 20 - 11 - 1012.0 - 0.0
31/04:30pm 29.0 30.0 21.0 62 5.3 WNW 17 - 9 - 1012.0 - 0.0
31/04:00pm 30.0 29.2 18.0 48 7.7 WNW 19 - 10 - 1012.0 - 0.0
31/03:30pm 30.0 30.0 19.0 51 7.1 NW 17 - 9 - 1012.0 - 0.0
31/03:00pm 31.1 30.7 18.1 46 8.4 NW 17 - 9 - 1012.0 1011.7 0.0
31/02:30pm 32.0 32.4 19.0 46 8.5 NW 15 - 8 - 1012.0 - 0.0
31/02:00pm 31.0 31.5 20.0 52 7.3 NNW 17 - 9 - 1012.0 - 0.0
31/01:30pm 31.0 31.1 20.0 52 7.3 WNW 19 - 10 - 1013.0 - 0.0
31/01:00pm 31.0 31.1 20.0 52 7.3 NNW 19 - 10 - 1013.0 - 0.0
31/12:30pm 30.0 30.1 20.0 55 6.6 NNW 19 - 10 - 1013.0 - 0.0
31/12:00pm 29.3 29.3 21.0 61 5.5 N 22 - 12 - 1014.0 1013.6 0.0
31/11:30am 30.0 30.9 22.0 62 5.4 N 20 - 11 - 1014.0 - 0.0
31/11:00am 30.0 29.6 19.0 51 7.1 NNW 19 - 10 - - - 0.0
31/10:30am 31.0 31.0 19.0 48 7.8 NW 17 - 9 - 1015.0 - 0.0
31/10:00am 30.0 30.3 18.0 48 7.7 W 13 - 7 - 1015.0 - 0.0
31/09:30am 30.0 29.9 17.0 45 8.2 WSW 13 - 7 - 1015.0 - 0.0
31/09:00am 29.5 29.3 18.6 52 7.0 SSW 17 - 9 - 1015.0 1015.2 0.0
31/08:30am 28.0 28.0 19.0 58 5.8 SW 17 - 9 - 1015.0 - 0.0
31/08:00am 27.0 27.9 20.0 65 4.6 SSW 15 - 8 - 1015.0 - 0.0
31/07:30am 26.0 27.6 20.0 69 3.9 SW 11 - 6 - 1015.0 - 0.0
31/07:00am 26.0 28.5 21.0 74 3.3 WSW 9 - 5 - 1015.0 - 0.0
31/06:30am 25.0 27.5 21.0 78 2.6 SW 9 - 5 - 1014.0 - 0.0
31/06:00am 23.8 26.1 21.3 86 1.6 SW 11 - 6 - 1014.0 1013.7 0.0
31/05:30am 24.0 26.1 21.0 83 2.0 SW 11 - 6 - 1014.0 - 0.0
31/05:00am 24.0 26.6 22.0 88 1.3 SW 11 - 6 - 1013.0 - 0.0
31/04:30am 24.0 26.1 21.0 83 2.0 SW 11 - 6 - 1013.0 - 0.0
31/04:00am 24.0 26.1 21.0 83 2.0 SW 11 - 6 - 1013.0 - 0.0
31/03:30am 24.0 26.5 21.0 83 2.0 SW 9 - 5 - 1013.0 - 0.0
31/03:00am 24.2 26.5 21.3 84 1.9 SW 11 - 6 - 1013.0 1012.9 0.0
31/02:30am 24.0 27.0 22.0 88 1.3 SW 9 - 5 - 1013.0 - 0.0
31/02:00am 24.0 27.4 22.0 88 1.3 WSW 7 - 4 - 1013.0 - 0.0
31/01:30am 24.0 27.4 22.0 88 1.3 WSW 7 - 4 - 1014.0 - 0.0
31/01:00am 24.0 27.6 22.0 88 1.3 WSW 6 - 3 - 1014.0 - 0.0
31/12:30am 24.0 27.6 22.0 88 1.3 WSW 6 - 3 - 1014.0 - 0.0
31/12:00am 24.7 28.1 22.0 85 1.8 WSW 7 - 4 - 1015.0 1014.9 0.0
 
Date/Time
WST
Temp
°C
App
Temp
°C
Dew
Point
Rel
Hum
%
Delta-T
°C
Wind Press
QNH
hPa
Press
MSL
hPa
Rain
since 9 am
mm
Dir
 
Spd
km/h
Gust
km/h
Spd
kts
Gust
kts
30/11:30pm 25.0 28.4 22.0 83 2.0 WSW 7 - 4 - 1015.0 - 0.0
30/11:00pm 25.0 28.4 22.0 83 2.0 W 7 - 4 - 1015.0 - 0.0
30/10:30pm 25.0 28.6 23.0 89 1.4 WSW 9 - 5 - 1015.0 - 0.0
30/10:00pm 25.0 28.0 22.0 83 2.0 W 9 - 5 - 1016.0 - 0.0
30/09:52pm 25.0 28.6 23.0 89 1.4 W 9 - 5 - 1016.0 - 0.0
30/09:35pm 25.0 28.9 23.0 89 1.4 W 7 - 4 - 1016.0 - 0.0
30/09:30pm 25.0 28.4 22.0 83 2.0 W 7 - 4 - 1016.0 - 0.0
30/09:00pm 25.0 29.7 21.9 83 2.1 CALM 0 - 0 - 1016.0 1015.6 0.0
30/08:30pm 26.0 29.6 22.0 78 2.7 W 6 - 3 - 1015.0 - 0.0
30/08:00pm 26.0 29.4 22.0 78 2.7 W 7 - 4 - 1015.0 - 0.0
30/07:30pm 26.0 28.5 21.0 74 3.3 W 9 - 5 - 1015.0 - 0.0
30/07:00pm 26.0 29.1 21.0 74 3.3 WNW 6 - 3 - 1015.0 - 0.0
30/06:30pm 26.0 28.4 20.0 69 3.9 NW 7 - 4 - 1014.0 - 0.0
30/06:00pm 26.8 28.8 19.2 63 4.9 NNW 7 - 4 - 1014.0 1013.8 0.0
30/05:30pm 27.0 28.1 18.0 58 5.7 NW 9 - 5 - 1014.0 - 0.0
30/05:00pm 28.0 28.3 18.0 54 6.4 NNW 13 - 7 - 1013.0 - 0.0
30/04:30pm 29.0 29.3 18.0 51 7.0 NW 13 - 7 - 1013.0 - 0.0
30/04:00pm 29.0 29.3 18.0 51 7.0 NW 13 - 7 - 1013.0 - 0.0
30/03:30pm 29.0 29.8 19.0 54 6.5 NNW 13 - 7 - 1013.0 - 0.0
30/03:00pm 28.8 28.9 19.1 55 6.3 N 17 - 9 - 1013.0 1012.6 0.0
30/02:30pm 29.0 28.9 20.0 58 5.9 NNW 20 - 11 - 1013.0 - 0.0
30/02:00pm 30.0 29.5 19.0 51 7.1 N 20 - 11 - 1013.0 - 0.0
30/01:30pm 30.0 29.5 19.0 51 7.1 NNW 20 - 11 - 1013.0 - 0.0
30/01:00pm 30.0 29.5 19.0 51 7.1 NNW 20 - 11 - 1013.0 - 0.0
30/12:30pm 30.0 29.6 19.0 51 7.1 NNW 19 - 10 - 1014.0 - 0.0
30/12:00pm 30.8 30.1 18.2 47 8.1 NNW 19 - 10 - 1014.0 1014.0 0.0
30/11:30am 32.0 32.0 18.0 43 9.0 N 15 - 8 - 1014.0 - 0.0
30/11:00am 31.0 31.0 18.0 45 8.4 N 15 - 8 - 1015.0 - 0.0
30/10:30am 31.0 31.7 18.0 45 8.4 NNW 11 - 6 - 1015.0 - 0.0
30/10:00am 31.0 32.1 17.0 43 8.9 ESE 7 - 4 - 1016.0 - 0.0
30/09:30am 30.0 31.1 18.0 48 7.7 SSW 9 - 5 - 1016.0 - 0.0
30/09:00am 29.5 30.6 18.0 50 7.3 SSW 9 - 5 - 1016.0 1016.3 0.0
30/08:30am 29.0 31.1 19.0 54 6.5 SSE 6 - 3 - 1016.0 - 0.0
30/08:00am 28.0 29.1 18.0 54 6.4 S 9 - 5 - 1016.0 - 0.0
30/07:30am 27.0 28.5 19.0 61 5.1 S 9 - 5 - 1016.0 - 0.0
30/07:00am 26.0 28.4 20.0 69 3.9 SSE 7 - 4 - 1015.0 - 0.0
30/06:30am 24.0 26.9 21.0 83 2.0 S 7 - 4 - 1015.0 - 0.0
30/06:00am 22.1 25.0 21.1 94 0.7 S 7 - 4 - 1015.0 1014.6 0.0
30/05:30am 22.0 24.9 21.0 94 0.7 S 7 - 4 - 1014.0 - 0.0
30/05:00am 22.0 24.9 21.0 94 0.7 S 7 - 4 - 1014.0 - 0.0
30/04:30am 23.0 25.9 21.0 88 1.3 SSW 7 - 4 - 1014.0 - 0.0
30/04:00am 23.0 26.0 22.0 94 0.7 SSW 9 - 5 - 1014.0 - 0.0
30/03:30am 23.0 26.0 22.0 94 0.7 SSW 9 - 5 - 1013.0 - 0.0
30/03:00am 23.5 26.5 21.9 91 1.1 SW 9 - 5 - 1013.0 1013.2 0.0
30/02:30am 24.0 27.0 22.0 88 1.3 SSW 9 - 5 - 1013.0 - 0.0
30/02:00am 24.0 27.4 22.0 88 1.3 SW 7 - 4 - 1013.0 - 0.0
30/01:30am 24.0 27.6 22.0 88 1.3 SSW 6 - 3 - 1014.0 - 0.0
30/01:17am 24.0 27.6 22.0 88 1.3 SSW 6 - 3 - 1014.0 - 0.0
30/01:00am 24.0 27.4 22.0 88 1.3 SSW 7 - 4 - 1014.0 - 0.0
30/12:30am 24.0 27.4 22.0 88 1.3 SSW 7 - 4 - 1014.0 - 0.0
30/12:00am 24.3 27.7 22.0 87 1.5 WSW 7 - 4 - 1015.0 1014.7 0.0
 
Date/Time
WST
Temp
°C
App
Temp
°C
Dew
Point
Rel
Hum
%
Delta-T
°C
Wind Press
QNH
hPa
Press
MSL
hPa
Rain
since 9 am
mm
Dir
 
Spd
km/h
Gust
km/h
Spd
kts
Gust
kts
29/11:30pm 24.0 27.4 22.0 88 1.3 WSW 7 - 4 - 1015.0 - 0.0
29/11:00pm 24.0 27.4 22.0 88 1.3 WSW 7 - 4 - 1015.0 - 0.0
29/10:30pm 24.0 28.7 22.0 88 1.3 CALM 0 - 0 - 1015.0 - 0.0
29/10:00pm 24.0 28.7 22.0 88 1.3 CALM 0 - 0 - 1015.0 - 0.0

Other Formats:

Comma delimited format used in spreadsheet applications
http://www.bom.gov.au/fwo/IDW60801/IDW60801.95101.axf

JavaScript Object Notation format (JSON) in row-major order
http://www.bom.gov.au/fwo/IDW60801/IDW60801.95101.json